KDEC

Decatur Airport

Decatur, Illinois, USA
METAR KDEC 131054Z AUTO 11006KT 4SM BR OVC009 01/M01 A3000 RMK AO2 SLP162 T00111006
Observed Flight Rules
Dec-13 @ 10:54 UTC (16 minutes ago) Instrument Flight Rules
Wind Visibility Clouds Conditions
110° at 6 knots 4 miles
  • Overcast at 900' AGL
  • Mist
Temperatures Readings
Current 1°C / 34°F
Dewpoint -1°C / 30°F
Humidity 87%
Altimeter 30" Hg
Pressure 1016.2 hPa
Elevation 207
METAR KDEC 131054Z AUTO 11006KT 4SM BR OVC009 01/M01 A3000 RMK AO2 SLP162 T00111006
Observed Flight Rules
Dec-13 @ 10:54 UTC
(16 minutes ago)
IFR
Wind Visibility
110° at 6 knots 4 miles
Clouds
  • Overcast at 900' AGL
Conditions
  • Mist
Temperature Dewpoint
1°C / 34°F -1°C / 30°F
Humidity Altimeter Pressure
87% 30" Hg 1016.2 hPa